createdAt,value
2022-12-27T00:00:39.459Z,10.32
2022-12-27T00:01:44.520Z,10.29
2022-12-27T00:02:50.311Z,10.30
2022-12-27T00:03:56.502Z,10.29
2022-12-27T00:05:02.615Z,10.28
2022-12-27T00:06:18.817Z,10.28
2022-12-27T00:07:22.494Z,10.26
2022-12-27T00:08:26.217Z,10.25
2022-12-27T00:09:30.593Z,10.26
2022-12-27T00:10:36.293Z,10.26
2022-12-27T00:11:44.058Z,10.26
2022-12-27T00:12:52.212Z,10.25
2022-12-27T00:14:09.336Z,10.26
2022-12-27T00:15:13.897Z,10.24
2022-12-27T00:16:22.840Z,10.21
2022-12-27T00:17:33.724Z,10.22
2022-12-27T00:18:42.023Z,10.20
2022-12-27T00:19:47.098Z,10.21
2022-12-27T00:21:00.044Z,10.21
2022-12-27T00:22:05.460Z,10.22
2022-12-27T00:23:11.372Z,10.20
2022-12-27T00:24:15.518Z,10.22
2022-12-27T00:25:24.349Z,10.21
2022-12-27T00:26:34.051Z,10.21
2022-12-27T00:27:40.934Z,10.22
2022-12-27T00:28:47.149Z,10.20
2022-12-27T00:29:52.555Z,10.20
2022-12-27T00:30:56.625Z,10.20
2022-12-27T00:32:00.787Z,10.19
2022-12-27T00:33:05.085Z,10.19
2022-12-27T00:34:10.601Z,10.17
2022-12-27T00:35:19.586Z,10.18
2022-12-27T00:36:30.677Z,10.17
2022-12-27T00:37:34.908Z,10.17
2022-12-27T00:38:39.192Z,10.16
2022-12-27T00:39:44.502Z,10.15
2022-12-27T00:40:49.127Z,10.15
2022-12-27T00:41:53.852Z,10.16
2022-12-27T00:42:57.802Z,10.14
2022-12-27T00:44:01.671Z,10.13
2022-12-27T00:45:16.956Z,10.12
2022-12-27T00:46:21.384Z,10.12
2022-12-27T00:47:26.868Z,10.11
2022-12-27T00:48:32.503Z,10.11
2022-12-27T00:49:38.348Z,10.10
2022-12-27T00:50:48.215Z,10.11
2022-12-27T00:51:51.949Z,10.11
2022-12-27T00:52:56.335Z,10.11
2022-12-27T00:54:13.956Z,10.09
2022-12-27T00:55:22.290Z,10.07
2022-12-27T00:56:31.776Z,10.09
2022-12-27T00:57:36.386Z,10.09
2022-12-27T00:58:41.768Z,10.11
2022-12-27T00:59:52.653Z,10.12
2022-12-27T01:01:10.475Z,10.13
2022-12-27T01:02:21.336Z,10.13
2022-12-27T01:03:25.013Z,10.13
2022-12-27T01:04:29.571Z,10.14
2022-12-27T01:05:36.681Z,10.09
2022-12-27T01:06:42.047Z,10.12
2022-12-27T01:07:45.657Z,10.12
2022-12-27T01:09:05.159Z,10.13
2022-12-27T01:10:11.717Z,10.13
2022-12-27T01:11:21.852Z,10.13
2022-12-27T01:12:26.314Z,10.14
2022-12-27T01:13:30.437Z,10.13
2022-12-27T01:14:34.653Z,10.14
2022-12-27T01:15:42.766Z,10.15
2022-12-27T01:16:47.505Z,10.14
2022-12-27T01:17:52.011Z,10.15
2022-12-27T01:18:56.841Z,10.16
2022-12-27T01:20:05.027Z,10.16
2022-12-27T01:21:13.091Z,10.17
2022-12-27T01:22:19.835Z,10.19
2022-12-27T01:23:23.799Z,10.14
2022-12-27T01:24:29.681Z,10.11
2022-12-27T01:25:34.709Z,10.12
2022-12-27T01:26:38.260Z,10.11
2022-12-27T01:27:46.146Z,10.12
2022-12-27T01:28:51.472Z,10.11
2022-12-27T01:29:59.196Z,10.10
2022-12-27T01:31:28.701Z,10.13
2022-12-27T01:32:35.526Z,10.11
2022-12-27T01:33:39.428Z,10.13
2022-12-27T01:34:43.329Z,10.14
2022-12-27T01:35:48.080Z,10.11
2022-12-27T01:37:01.259Z,10.03
2022-12-27T01:38:06.431Z,10.05
2022-12-27T01:39:15.600Z,10.06
2022-12-27T01:40:21.922Z,10.03
2022-12-27T01:41:54.893Z,10.03
2022-12-27T01:43:00.509Z,10.03
2022-12-27T01:44:39.235Z,10.05
2022-12-27T01:45:44.493Z,10.08
2022-12-27T01:46:49.133Z,10.11
2022-12-27T01:48:32.536Z,10.11
2022-12-27T01:50:21.408Z,10.07
2022-12-27T01:51:29.945Z,10.08
2022-12-27T01:53:11.835Z,10.08
2022-12-27T01:54:18.211Z,10.09
2022-12-27T01:56:12.746Z,9.99
2022-12-27T01:57:17.377Z,9.96
2022-12-27T01:58:48.698Z,9.91
2022-12-27T01:59:58.451Z,9.92
2022-12-27T02:01:12.999Z,9.89
2022-12-27T02:02:24.292Z,9.85
2022-12-27T02:03:47.429Z,9.88
2022-12-27T02:04:51.280Z,9.89
2022-12-27T02:05:59.007Z,9.93
2022-12-27T02:07:03.009Z,9.89
2022-12-27T02:09:06.607Z,9.93
2022-12-27T02:10:13.981Z,9.89
2022-12-27T02:11:45.083Z,9.85
2022-12-27T02:12:50.210Z,9.79
2022-12-27T02:13:54.667Z,9.87
2022-12-27T02:15:04.775Z,9.88
2022-12-27T02:16:26.697Z,9.90
2022-12-27T02:17:33.961Z,9.90
2022-12-27T02:18:38.372Z,9.92
2022-12-27T02:19:41.781Z,9.91
2022-12-27T02:21:20.493Z,9.89
2022-12-27T02:23:26.371Z,9.85
2022-12-27T02:25:12.145Z,9.89
2022-12-27T02:26:56.046Z,9.97
2022-12-27T02:28:51.001Z,9.91
2022-12-27T02:30:10.798Z,9.93
2022-12-27T02:31:55.055Z,9.93
2022-12-27T02:33:30.688Z,9.93
2022-12-27T02:34:42.492Z,9.87
2022-12-27T02:36:09.009Z,9.84
2022-12-27T02:37:16.480Z,9.81
2022-12-27T02:38:40.620Z,9.81
2022-12-27T02:40:19.252Z,9.87
2022-12-27T02:43:30.059Z,9.86
2022-12-27T02:44:56.657Z,9.88
2022-12-27T02:46:39.758Z,9.82
2022-12-27T02:48:05.879Z,9.80
2022-12-27T02:50:03.782Z,9.89
2022-12-27T02:52:22.555Z,9.93
2022-12-27T02:54:06.304Z,9.98
2022-12-27T02:56:27.941Z,10.00
2022-12-27T02:58:23.605Z,10.11
2022-12-27T03:00:45.924Z,10.17
2022-12-27T03:02:53.324Z,10.21
2022-12-27T03:04:48.934Z,10.26
2022-12-27T03:06:47.370Z,10.31
2022-12-27T03:08:31.083Z,10.36
2022-12-27T03:10:36.631Z,10.40
2022-12-27T03:12:16.858Z,10.40
2022-12-27T03:14:17.188Z,10.46
2022-12-27T03:16:10.890Z,10.46
2022-12-27T03:17:36.145Z,10.44
2022-12-27T03:18:57.880Z,10.45
2022-12-27T03:20:28.641Z,10.43
2022-12-27T03:22:13.008Z,10.32
2022-12-27T03:23:37.790Z,10.28
2022-12-27T03:25:01.582Z,10.30
2022-12-27T03:26:09.653Z,10.26
2022-12-27T03:28:10.175Z,10.24
2022-12-27T03:29:40.359Z,10.16
2022-12-27T03:31:11.810Z,10.18
2022-12-27T03:32:41.087Z,10.15
2022-12-27T03:33:48.871Z,10.08
2022-12-27T03:35:02.452Z,10.07
2022-12-27T03:36:35.027Z,10.08
2022-12-27T03:38:04.679Z,9.99
2022-12-27T03:39:28.998Z,9.98
2022-12-27T03:41:09.145Z,9.95
2022-12-27T03:42:46.012Z,9.94
2022-12-27T03:43:51.919Z,9.90
2022-12-27T03:44:59.197Z,9.97
2022-12-27T03:46:35.437Z,9.99
2022-12-27T03:48:09.031Z,9.88
2022-12-27T03:49:52.311Z,9.91
2022-12-27T03:51:20.306Z,9.92
2022-12-27T03:52:58.304Z,9.86
2022-12-27T03:54:27.974Z,9.87
2022-12-27T03:55:34.023Z,9.88
2022-12-27T03:56:39.580Z,9.86
2022-12-27T03:57:48.570Z,9.85
2022-12-27T03:59:05.171Z,9.81
2022-12-27T04:00:13.273Z,9.78
2022-12-27T04:01:21.815Z,9.79
2022-12-27T04:02:25.874Z,9.79
2022-12-27T04:03:35.408Z,9.78
2022-12-27T04:04:42.285Z,9.77
2022-12-27T04:05:46.804Z,9.78
2022-12-27T04:06:53.000Z,9.73
2022-12-27T04:08:16.118Z,9.72
2022-12-27T04:09:42.065Z,9.75
2022-12-27T04:11:05.255Z,9.78
2022-12-27T04:12:29.343Z,9.77
2022-12-27T04:13:52.400Z,9.73
2022-12-27T04:15:26.149Z,9.71
2022-12-27T04:16:50.077Z,9.78
2022-12-27T04:18:12.608Z,9.75
2022-12-27T04:19:37.351Z,9.71
2022-12-27T04:21:00.969Z,9.66
2022-12-27T04:22:26.473Z,9.65
2022-12-27T04:23:53.231Z,9.64
2022-12-27T04:25:27.979Z,9.63
2022-12-27T04:26:50.899Z,9.61
2022-12-27T04:28:19.049Z,9.57
2022-12-27T04:29:41.133Z,9.56
2022-12-27T04:31:04.495Z,9.58
2022-12-27T04:32:26.790Z,9.63
2022-12-27T04:33:50.782Z,9.58
2022-12-27T04:34:54.832Z,9.60
2022-12-27T04:36:05.854Z,9.62
2022-12-27T04:37:17.227Z,9.59
2022-12-27T04:38:23.596Z,9.57
2022-12-27T04:39:27.312Z,9.63
2022-12-27T04:40:51.579Z,9.55
2022-12-27T04:42:14.229Z,9.56
2022-12-27T04:43:37.304Z,9.57
2022-12-27T04:45:06.084Z,9.52
2022-12-27T04:46:44.697Z,9.46
2022-12-27T04:48:08.378Z,9.46
2022-12-27T04:49:41.203Z,9.48
2022-12-27T04:51:10.353Z,9.46
2022-12-27T04:52:39.112Z,9.37
2022-12-27T04:54:02.184Z,9.36
2022-12-27T04:55:28.499Z,9.38
2022-12-27T04:56:35.701Z,9.42
2022-12-27T04:57:39.439Z,9.40
2022-12-27T04:59:13.691Z,9.37
2022-12-27T05:00:42.470Z,9.37
2022-12-27T05:02:09.047Z,9.35
2022-12-27T05:03:24.278Z,9.42
2022-12-27T05:04:35.849Z,9.36
2022-12-27T05:05:41.615Z,9.30
2022-12-27T05:06:45.268Z,9.28
2022-12-27T05:08:10.483Z,9.29
2022-12-27T05:09:32.913Z,9.26
2022-12-27T05:10:56.090Z,9.25
2022-12-27T05:12:18.437Z,9.22
2022-12-27T05:13:40.855Z,9.15
2022-12-27T05:14:44.494Z,9.13
2022-12-27T05:15:49.624Z,9.07
2022-12-27T05:16:53.055Z,9.05
2022-12-27T05:18:06.668Z,9.03
2022-12-27T05:19:14.112Z,9.01
2022-12-27T05:20:19.147Z,9.01
2022-12-27T05:21:22.906Z,9.02
2022-12-27T05:22:57.456Z,9.00
2022-12-27T05:24:20.921Z,8.98
2022-12-27T05:25:41.250Z,8.89
2022-12-27T05:26:48.291Z,8.90
2022-12-27T05:27:53.253Z,8.98
2022-12-27T05:28:59.646Z,8.85
2022-12-27T05:30:04.806Z,8.80
2022-12-27T05:31:10.157Z,8.76
2022-12-27T05:32:18.506Z,8.82
2022-12-27T05:33:22.160Z,8.84
2022-12-27T05:34:31.250Z,8.89
2022-12-27T05:35:36.879Z,8.87
2022-12-27T05:36:41.597Z,8.91
2022-12-27T05:37:50.071Z,8.89
2022-12-27T05:38:58.310Z,8.85
2022-12-27T05:40:01.748Z,8.84
2022-12-27T05:41:10.492Z,8.83
2022-12-27T05:42:16.953Z,8.87
2022-12-27T05:43:21.875Z,8.84
2022-12-27T05:44:29.779Z,8.86
2022-12-27T05:45:33.700Z,8.84
2022-12-27T05:46:39.126Z,8.92
2022-12-27T05:47:44.331Z,8.93
2022-12-27T05:48:49.893Z,8.93
2022-12-27T05:49:56.593Z,8.86
2022-12-27T05:51:12.522Z,8.79
2022-12-27T05:52:17.284Z,8.70
2022-12-27T05:53:25.138Z,8.70
2022-12-27T05:54:28.972Z,8.72
2022-12-27T05:55:37.010Z,8.73
2022-12-27T05:56:47.855Z,8.69
2022-12-27T05:57:58.755Z,8.70
2022-12-27T05:59:02.492Z,8.71
2022-12-27T06:00:23.354Z,8.72
2022-12-27T06:01:41.511Z,8.70
2022-12-27T06:02:46.143Z,8.61
2022-12-27T06:03:57.863Z,8.66
2022-12-27T06:05:04.174Z,8.61
2022-12-27T06:06:14.971Z,8.68
2022-12-27T06:07:23.048Z,8.67
2022-12-27T06:08:29.116Z,8.65
2022-12-27T06:09:32.920Z,8.66
2022-12-27T06:10:42.751Z,8.62
2022-12-27T06:11:50.841Z,8.54
2022-12-27T06:12:56.571Z,8.59
2022-12-27T06:14:01.867Z,8.50
2022-12-27T06:15:15.043Z,8.47
2022-12-27T06:16:21.106Z,8.49
2022-12-27T06:17:27.984Z,8.47
2022-12-27T06:18:36.261Z,8.50
2022-12-27T06:19:44.546Z,8.50
2022-12-27T06:20:49.696Z,8.43
2022-12-27T06:21:54.597Z,8.39
2022-12-27T06:23:04.944Z,8.27
2022-12-27T06:24:09.729Z,8.17
2022-12-27T06:25:17.526Z,8.13
2022-12-27T06:26:27.853Z,8.14
2022-12-27T06:27:33.554Z,8.02
2022-12-27T06:28:40.407Z,7.95
2022-12-27T06:29:44.317Z,7.84
2022-12-27T06:30:49.138Z,7.75
2022-12-27T06:31:55.463Z,7.69
2022-12-27T06:33:01.542Z,7.59
2022-12-27T06:34:06.229Z,7.51
2022-12-27T06:35:12.093Z,7.42
2022-12-27T06:36:21.218Z,7.41
2022-12-27T06:37:30.565Z,7.44
2022-12-27T06:38:35.180Z,7.45
2022-12-27T06:39:39.895Z,7.38
2022-12-27T06:40:43.637Z,7.36
2022-12-27T06:41:48.693Z,7.33
2022-12-27T06:42:54.453Z,7.39
2022-12-27T06:43:58.987Z,7.41
2022-12-27T06:45:10.658Z,7.39
2022-12-27T06:46:18.486Z,7.33
2022-12-27T06:47:25.778Z,7.34
2022-12-27T06:48:30.219Z,7.34
2022-12-27T06:49:37.367Z,7.31
2022-12-27T06:50:41.544Z,7.28
2022-12-27T06:51:54.261Z,7.19
2022-12-27T06:53:02.665Z,7.27
2022-12-27T06:54:09.179Z,7.23
2022-12-27T06:55:13.528Z,7.23
2022-12-27T06:56:21.919Z,7.17
2022-12-27T06:57:26.638Z,7.17
2022-12-27T06:58:31.212Z,7.17
2022-12-27T06:59:35.431Z,7.16
2022-12-27T07:00:46.076Z,7.21
2022-12-27T07:01:52.524Z,7.16
2022-12-27T07:03:02.412Z,7.10
2022-12-27T07:04:06.818Z,7.10
2022-12-27T07:05:16.172Z,7.07
2022-12-27T07:06:21.994Z,7.05
2022-12-27T07:07:30.452Z,7.00
2022-12-27T07:08:36.386Z,7.06
2022-12-27T07:09:45.502Z,7.03
2022-12-27T07:10:48.932Z,6.96
2022-12-27T07:11:54.658Z,6.91
2022-12-27T07:13:00.726Z,6.89
2022-12-27T07:14:11.356Z,6.91
2022-12-27T07:15:15.915Z,6.91
2022-12-27T07:16:24.329Z,6.93
2022-12-27T07:17:27.979Z,6.89
2022-12-27T07:18:31.879Z,6.96
2022-12-27T07:19:35.868Z,6.94
2022-12-27T07:20:39.319Z,6.94
2022-12-27T07:21:51.963Z,6.98
2022-12-27T07:22:59.083Z,7.02
2022-12-27T07:24:10.445Z,7.05
2022-12-27T07:25:17.107Z,7.02
2022-12-27T07:26:29.820Z,7.07
2022-12-27T07:27:38.754Z,7.06
2022-12-27T07:28:49.117Z,6.95
2022-12-27T07:29:52.641Z,6.87
2022-12-27T07:31:00.643Z,6.89
2022-12-27T07:32:13.540Z,6.90
2022-12-27T07:33:17.846Z,6.89
2022-12-27T07:34:22.886Z,6.89
2022-12-27T07:35:28.838Z,6.96
2022-12-27T07:36:39.777Z,6.89
2022-12-27T07:37:45.623Z,6.95
2022-12-27T07:38:50.770Z,6.96
2022-12-27T07:39:57.360Z,6.91
2022-12-27T07:41:03.305Z,6.96
2022-12-27T07:42:10.573Z,7.01
2022-12-27T07:43:14.531Z,7.06
2022-12-27T07:44:23.328Z,7.05
2022-12-27T07:45:27.296Z,6.97
2022-12-27T07:46:36.468Z,6.89
2022-12-27T07:47:40.544Z,6.84
2022-12-27T07:48:47.691Z,6.83
2022-12-27T07:49:51.906Z,6.85
2022-12-27T07:50:57.441Z,6.86
2022-12-27T07:52:01.773Z,6.82
2022-12-27T07:53:14.277Z,6.84
2022-12-27T07:54:20.011Z,6.84
2022-12-27T07:55:24.285Z,6.86
2022-12-27T07:56:30.621Z,6.87
2022-12-27T07:57:35.782Z,6.89
2022-12-27T07:58:43.558Z,6.86
2022-12-27T07:59:49.602Z,6.86
2022-12-27T08:00:55.155Z,6.90
2022-12-27T08:02:07.649Z,6.96
2022-12-27T08:03:19.367Z,6.84
2022-12-27T08:04:28.222Z,6.87
2022-12-27T08:05:35.382Z,6.85
2022-12-27T08:06:39.957Z,6.90
2022-12-27T08:07:44.545Z,6.90
2022-12-27T08:08:53.223Z,6.90
2022-12-27T08:10:04.226Z,6.83
2022-12-27T08:11:07.974Z,6.85
2022-12-27T08:12:15.576Z,6.86
2022-12-27T08:13:19.785Z,6.93
2022-12-27T08:14:26.753Z,6.89
2022-12-27T08:15:31.260Z,6.89
2022-12-27T08:16:39.253Z,6.89
2022-12-27T08:17:45.399Z,6.84
2022-12-27T08:18:53.832Z,6.78
2022-12-27T08:19:57.919Z,6.77
2022-12-27T08:21:02.506Z,6.73
2022-12-27T08:22:06.794Z,6.77
2022-12-27T08:23:11.940Z,6.78
2022-12-27T08:24:21.008Z,6.76
2022-12-27T08:25:28.535Z,6.77
2022-12-27T08:26:33.131Z,6.80
2022-12-27T08:27:38.611Z,6.75
2022-12-27T08:28:43.603Z,6.72
2022-12-27T08:29:48.344Z,6.76
2022-12-27T08:30:55.254Z,6.78
2022-12-27T08:31:59.167Z,6.79
2022-12-27T08:33:05.495Z,6.82
2022-12-27T08:34:09.738Z,6.79
2022-12-27T08:35:50.093Z,6.83
2022-12-27T08:36:55.116Z,6.95
2022-12-27T08:38:03.044Z,7.00
2022-12-27T08:39:09.112Z,6.98
2022-12-27T08:40:13.844Z,6.96
2022-12-27T08:41:22.446Z,6.94
2022-12-27T08:42:26.574Z,6.83
2022-12-27T08:43:34.298Z,6.79
2022-12-27T08:44:38.819Z,6.73
2022-12-27T08:45:42.521Z,6.73
2022-12-27T08:46:50.355Z,6.74
2022-12-27T08:48:00.133Z,6.72
2022-12-27T08:49:06.118Z,6.73
2022-12-27T08:50:23.941Z,6.68
2022-12-27T08:51:35.867Z,6.76
2022-12-27T08:52:44.980Z,6.75
2022-12-27T08:53:50.744Z,6.78
2022-12-27T08:54:55.061Z,6.78
2022-12-27T08:55:58.842Z,6.82
2022-12-27T08:57:09.625Z,6.87
2022-12-27T08:58:16.276Z,6.87
2022-12-27T08:59:23.480Z,6.82
2022-12-27T09:00:30.605Z,6.80
2022-12-27T09:01:42.548Z,6.80
2022-12-27T09:02:46.962Z,6.75
2022-12-27T09:03:59.597Z,6.81
2022-12-27T09:05:13.726Z,6.85
2022-12-27T09:06:22.759Z,6.82
2022-12-27T09:07:28.670Z,6.86
2022-12-27T09:08:33.503Z,6.86
2022-12-27T09:09:37.257Z,6.96
2022-12-27T09:10:43.307Z,6.97
2022-12-27T09:11:47.245Z,7.03
2022-12-27T09:12:55.815Z,7.05
2022-12-27T09:14:08.577Z,7.11
2022-12-27T09:15:20.756Z,7.09
2022-12-27T09:16:29.138Z,7.07
2022-12-27T09:17:34.380Z,7.12
2022-12-27T09:18:43.879Z,7.13
2022-12-27T09:19:53.356Z,7.19
2022-12-27T09:21:07.646Z,7.17
2022-12-27T09:22:12.790Z,7.14
2022-12-27T09:23:28.150Z,7.10
2022-12-27T09:24:35.847Z,7.05
2022-12-27T09:25:41.599Z,7.11
2022-12-27T09:26:45.190Z,7.04
2022-12-27T09:27:52.210Z,7.01
2022-12-27T09:28:57.404Z,7.02
2022-12-27T09:30:05.770Z,7.02
2022-12-27T09:31:20.596Z,6.96
2022-12-27T09:32:27.569Z,6.97
2022-12-27T09:33:32.018Z,6.97
2022-12-27T09:34:35.748Z,7.01
2022-12-27T09:35:39.716Z,6.99
2022-12-27T09:36:43.531Z,6.99
2022-12-27T09:37:47.006Z,7.01
2022-12-27T09:38:53.058Z,7.00
2022-12-27T09:39:57.078Z,7.03
2022-12-27T09:41:06.884Z,6.98
2022-12-27T09:44:16.470Z,7.03
2022-12-27T09:45:32.107Z,7.12
2022-12-27T09:46:51.350Z,7.08
2022-12-27T09:48:14.817Z,7.01
2022-12-27T09:49:39.267Z,7.01
2022-12-27T09:51:18.567Z,6.96
2022-12-27T09:53:07.374Z,6.89
2022-12-27T09:54:17.103Z,6.93
2022-12-27T09:55:54.201Z,6.95
2022-12-27T09:57:19.858Z,7.00
2022-12-27T09:58:36.101Z,7.05
2022-12-27T09:59:48.902Z,7.06
2022-12-27T10:00:54.138Z,7.06
2022-12-27T10:01:59.042Z,7.06
2022-12-27T10:03:08.473Z,7.04
2022-12-27T10:04:15.191Z,7.04
2022-12-27T10:05:34.153Z,7.07
2022-12-27T10:07:00.373Z,7.15
2022-12-27T10:08:53.011Z,7.12
2022-12-27T10:10:17.392Z,7.16
2022-12-27T10:11:45.458Z,7.17
2022-12-27T10:13:04.222Z,7.24
2022-12-27T10:14:43.691Z,7.26
2022-12-27T10:16:40.212Z,7.37
2022-12-27T10:19:26.507Z,7.37
2022-12-27T10:20:37.263Z,7.55
2022-12-27T10:22:13.518Z,7.63
2022-12-27T10:23:31.073Z,7.68
2022-12-27T10:24:56.439Z,7.76
2022-12-27T10:26:19.619Z,7.82
2022-12-27T10:27:30.004Z,7.77
2022-12-27T10:28:47.145Z,7.76
2022-12-27T10:30:12.331Z,7.77
2022-12-27T10:31:23.043Z,7.72
2022-12-27T10:32:30.069Z,7.65
2022-12-27T10:33:36.488Z,7.67
2022-12-27T10:34:42.373Z,7.62
2022-12-27T10:35:48.731Z,7.58
2022-12-27T10:37:01.102Z,7.51
2022-12-27T10:38:15.253Z,7.48
2022-12-27T10:39:35.077Z,7.46
2022-12-27T10:41:19.273Z,7.43
2022-12-27T10:43:04.506Z,7.51
2022-12-27T10:44:14.572Z,7.44
2022-12-27T10:45:35.416Z,7.45
2022-12-27T10:46:52.357Z,7.54
2022-12-27T10:48:20.966Z,7.52
2022-12-27T10:49:44.499Z,7.59
2022-12-27T10:51:16.147Z,7.51
2022-12-27T10:52:32.155Z,7.46
2022-12-27T10:53:46.996Z,7.46
2022-12-27T10:55:01.596Z,7.36
2022-12-27T10:56:21.608Z,7.43
2022-12-27T10:57:38.209Z,7.36
2022-12-27T10:58:58.941Z,7.38
2022-12-27T11:00:25.494Z,7.36
2022-12-27T11:01:44.560Z,7.40
2022-12-27T11:02:57.959Z,7.39
2022-12-27T11:04:25.082Z,7.39
2022-12-27T11:05:41.955Z,7.41
2022-12-27T11:07:21.312Z,7.37
2022-12-27T11:08:31.052Z,7.45
2022-12-27T11:09:50.662Z,7.38
2022-12-27T11:11:27.786Z,7.38
2022-12-27T11:12:36.382Z,7.33
2022-12-27T11:13:41.305Z,7.27
2022-12-27T11:15:19.673Z,7.27
2022-12-27T11:16:36.701Z,7.29
2022-12-27T11:17:54.444Z,7.28
2022-12-27T11:19:06.157Z,7.35
2022-12-27T11:20:40.606Z,7.44
2022-12-27T11:21:44.250Z,7.46
2022-12-27T11:22:56.865Z,7.47
2022-12-27T11:24:05.157Z,7.51
2022-12-27T11:25:15.751Z,7.56
2022-12-27T11:26:53.726Z,7.46
2022-12-27T11:28:24.750Z,7.43
2022-12-27T11:29:46.348Z,7.43
2022-12-27T11:31:08.837Z,7.40
2022-12-27T11:32:21.283Z,7.39
2022-12-27T11:34:03.041Z,7.38
2022-12-27T11:35:27.163Z,7.40
2022-12-27T11:36:45.255Z,7.38
2022-12-27T11:37:52.174Z,7.38
2022-12-27T11:38:58.504Z,7.39
2022-12-27T11:40:39.911Z,7.38
2022-12-27T11:41:55.129Z,7.37
2022-12-27T11:43:12.751Z,7.40
2022-12-27T11:44:37.184Z,7.35
2022-12-27T11:45:52.285Z,7.34
2022-12-27T11:47:26.179Z,7.35
2022-12-27T11:48:45.364Z,7.30
2022-12-27T11:50:28.266Z,7.35
2022-12-27T11:52:20.864Z,7.44
2022-12-27T11:54:08.738Z,7.44
2022-12-27T11:56:16.974Z,7.37
2022-12-27T11:58:17.426Z,7.38
2022-12-27T11:59:45.336Z,7.38
2022-12-27T12:01:05.717Z,7.31
2022-12-27T12:02:39.335Z,7.39
2022-12-27T12:04:17.225Z,7.43
2022-12-27T12:05:55.394Z,7.45
2022-12-27T12:07:50.459Z,7.45
2022-12-27T12:09:22.613Z,7.42
2022-12-27T12:11:00.419Z,7.48
2022-12-27T12:12:26.365Z,7.50
2022-12-27T12:14:05.556Z,7.43
2022-12-27T12:16:08.613Z,7.41
2022-12-27T12:18:11.557Z,7.45
2022-12-27T12:19:59.031Z,7.42
2022-12-27T12:21:18.443Z,7.43
2022-12-27T12:23:44.728Z,7.48
2022-12-27T12:25:39.153Z,7.54
2022-12-27T12:27:33.026Z,7.54
2022-12-27T12:28:59.511Z,7.45
2022-12-27T12:30:50.554Z,7.52
2022-12-27T12:32:36.484Z,7.60
2022-12-27T12:34:08.904Z,7.61
2022-12-27T12:35:38.680Z,7.54
2022-12-27T12:37:12.419Z,7.45
2022-12-27T12:38:50.580Z,7.41
2022-12-27T12:40:32.996Z,7.39
2022-12-27T12:42:16.887Z,7.37
2022-12-27T12:43:54.771Z,7.33
2022-12-27T12:45:46.864Z,7.33
2022-12-27T12:47:02.203Z,7.45
2022-12-27T12:48:43.654Z,7.36
2022-12-27T12:51:01.848Z,7.38
2022-12-27T12:52:12.017Z,7.41
2022-12-27T12:54:12.549Z,7.40
2022-12-27T12:55:47.189Z,7.34
2022-12-27T12:57:41.127Z,7.36
2022-12-27T12:59:49.638Z,7.24
2022-12-27T13:01:28.246Z,7.27
2022-12-27T13:02:58.532Z,7.22
2022-12-27T13:04:38.101Z,7.20
2022-12-27T13:05:58.086Z,7.19
2022-12-27T13:07:47.659Z,7.22
2022-12-27T13:10:05.864Z,7.16
2022-12-27T13:11:44.685Z,7.17
2022-12-27T13:13:54.833Z,7.16
2022-12-27T13:15:34.728Z,7.19
2022-12-27T13:17:22.388Z,7.23
2022-12-27T13:19:10.152Z,7.17
2022-12-27T13:20:45.818Z,7.16
2022-12-27T13:22:41.394Z,7.16
2022-12-27T13:24:12.000Z,7.18
2022-12-27T13:25:33.591Z,7.26
2022-12-27T13:27:26.246Z,7.25
2022-12-27T13:29:28.255Z,7.28
2022-12-27T13:30:55.836Z,7.32
2022-12-27T13:32:41.869Z,7.32
2022-12-27T13:34:21.750Z,7.31
2022-12-27T13:36:14.377Z,7.34
2022-12-27T13:38:07.522Z,7.33
2022-12-27T13:39:54.773Z,7.33
2022-12-27T13:41:30.410Z,7.23
2022-12-27T13:43:26.882Z,7.28
2022-12-27T13:44:48.057Z,7.27
2022-12-27T13:46:50.980Z,7.18
2022-12-27T13:48:19.678Z,7.14
2022-12-27T13:49:52.078Z,7.06
2022-12-27T13:51:59.029Z,7.14
2022-12-27T13:53:59.454Z,7.06
2022-12-27T13:55:38.770Z,7.11
2022-12-27T13:57:17.489Z,7.13
2022-12-27T13:58:59.484Z,7.08
2022-12-27T14:00:25.037Z,7.05
2022-12-27T14:01:29.598Z,7.05
2022-12-27T14:03:22.572Z,7.10
2022-12-27T14:04:59.780Z,7.17
2022-12-27T14:06:32.207Z,7.21
2022-12-27T14:08:09.277Z,7.12
2022-12-27T14:09:57.611Z,7.14
2022-12-27T14:11:27.728Z,7.15
2022-12-27T14:13:10.832Z,7.13
2022-12-27T14:14:30.603Z,7.16
2022-12-27T14:16:16.067Z,7.11
2022-12-27T14:17:54.748Z,7.18
2022-12-27T14:20:11.604Z,7.24
2022-12-27T14:22:00.251Z,7.19
2022-12-27T14:23:36.785Z,7.15
2022-12-27T14:25:10.465Z,7.15
2022-12-27T14:26:39.761Z,7.19
2022-12-27T14:28:22.357Z,7.18
2022-12-27T14:30:03.029Z,7.16
2022-12-27T14:31:44.541Z,7.10
2022-12-27T14:33:39.146Z,7.06
2022-12-27T14:35:45.738Z,7.06
2022-12-27T14:37:17.182Z,6.99
2022-12-27T14:39:29.747Z,7.05
2022-12-27T14:41:01.620Z,6.97
2022-12-27T14:43:10.031Z,6.95
2022-12-27T14:44:43.827Z,6.93
2022-12-27T14:46:13.746Z,6.91
2022-12-27T14:47:39.789Z,6.96
2022-12-27T14:49:59.516Z,6.91
2022-12-27T14:52:00.372Z,6.98
2022-12-27T14:53:42.903Z,6.94
2022-12-27T14:55:00.987Z,6.94
2022-12-27T14:56:39.843Z,6.97
2022-12-27T14:58:55.898Z,6.93
2022-12-27T15:00:18.052Z,6.97
2022-12-27T15:01:55.404Z,6.99
2022-12-27T15:03:56.450Z,7.02
2022-12-27T15:06:07.773Z,7.03
2022-12-27T15:07:37.725Z,7.02
2022-12-27T16:27:46.090Z,6.30
2022-12-27T16:29:19.482Z,6.28
2022-12-27T16:30:49.608Z,6.26
2022-12-27T16:32:24.859Z,6.17
2022-12-27T16:33:39.466Z,6.20
2022-12-27T16:34:55.015Z,6.21
2022-12-27T16:36:34.922Z,6.25
2022-12-27T16:37:53.428Z,6.17
2022-12-27T16:39:26.312Z,6.17
2022-12-27T16:41:10.407Z,6.20
2022-12-27T16:42:27.413Z,6.17
2022-12-27T16:44:38.127Z,6.12
2022-12-27T16:46:42.426Z,6.11
2022-12-27T16:48:34.597Z,6.05
2022-12-27T16:50:05.097Z,6.13
2022-12-27T16:51:53.820Z,6.02
2022-12-27T16:53:12.924Z,6.05
2022-12-27T16:55:05.848Z,6.06
2022-12-27T16:56:39.168Z,5.98
2022-12-27T16:57:57.257Z,5.90
2022-12-27T17:00:06.073Z,5.98
2022-12-27T17:01:53.084Z,5.96
2022-12-27T17:03:21.100Z,6.01
2022-12-27T17:04:59.254Z,6.01
2022-12-27T17:06:32.976Z,6.01
2022-12-27T17:07:56.510Z,5.97
2022-12-27T17:09:29.822Z,5.93
2022-12-27T17:11:01.714Z,5.91
2022-12-27T17:12:26.119Z,5.87
2022-12-27T17:13:50.711Z,5.87
2022-12-27T17:15:05.145Z,5.90
2022-12-27T17:16:47.927Z,5.87
2022-12-27T17:18:12.457Z,5.84
2022-12-27T17:19:46.673Z,5.83
2022-12-27T17:21:14.493Z,5.81
2022-12-27T17:22:22.457Z,5.78
2022-12-27T17:23:32.876Z,5.72
2022-12-27T17:24:40.714Z,5.76
2022-12-27T17:26:00.521Z,5.75
2022-12-27T17:27:23.160Z,5.79
2022-12-27T17:28:46.110Z,5.74
2022-12-27T17:30:08.469Z,5.80
2022-12-27T17:31:40.453Z,5.82
2022-12-27T17:33:19.836Z,5.79
2022-12-27T17:35:13.460Z,5.77
2022-12-27T17:36:44.898Z,5.80
2022-12-27T17:38:36.457Z,5.84
2022-12-27T17:40:08.648Z,5.88
2022-12-27T17:42:34.769Z,5.82
2022-12-27T17:44:44.593Z,5.78
2022-12-27T17:46:51.776Z,5.77
2022-12-27T17:48:24.146Z,5.77
2022-12-27T17:49:40.219Z,5.75
2022-12-27T17:50:49.244Z,5.78
2022-12-27T17:52:18.645Z,5.78
2022-12-27T17:53:59.813Z,5.80
2022-12-27T17:55:46.838Z,5.75
2022-12-27T17:57:20.606Z,5.78
2022-12-27T17:58:59.717Z,5.73
2022-12-27T18:00:23.185Z,5.68
2022-12-27T18:01:35.536Z,5.66
2022-12-27T18:02:48.619Z,5.69
2022-12-27T18:04:40.779Z,5.71
2022-12-27T18:05:51.543Z,5.69
2022-12-27T18:07:01.580Z,5.72
2022-12-27T18:08:20.601Z,5.73
2022-12-27T18:09:39.756Z,5.74
2022-12-27T18:10:46.024Z,5.70
2022-12-27T18:11:50.989Z,5.71
2022-12-27T18:13:08.654Z,5.74
2022-12-27T18:14:16.033Z,5.70
2022-12-27T18:15:35.474Z,5.70
2022-12-27T18:16:50.705Z,5.71
2022-12-27T18:18:06.121Z,5.67
2022-12-27T18:19:23.357Z,5.66
2022-12-27T18:20:44.299Z,5.65
2022-12-27T18:22:05.065Z,5.66
2022-12-27T18:23:12.259Z,5.66
2022-12-27T18:24:33.498Z,5.61
2022-12-27T18:26:10.689Z,5.64
2022-12-27T18:27:25.305Z,5.67
2022-12-27T18:28:34.527Z,5.66
2022-12-27T18:29:44.108Z,5.65
2022-12-27T18:30:57.713Z,5.68
2022-12-27T18:32:10.104Z,5.68
2022-12-27T18:33:22.039Z,5.73
2022-12-27T18:34:45.188Z,5.71
2022-12-27T18:35:52.102Z,5.76
2022-12-27T18:37:25.317Z,5.72
2022-12-27T18:38:43.579Z,5.69
2022-12-27T18:40:02.211Z,5.73
2022-12-27T18:41:19.564Z,5.71
2022-12-27T18:42:44.924Z,5.70
2022-12-27T18:44:00.982Z,5.75
2022-12-27T18:45:23.697Z,5.81
2022-12-27T18:46:42.391Z,5.82
2022-12-27T18:47:51.941Z,5.82
2022-12-27T18:49:04.766Z,5.78
2022-12-27T18:50:21.419Z,5.80
2022-12-27T18:51:35.317Z,5.80
2022-12-27T18:52:45.422Z,5.78
2022-12-27T18:53:52.752Z,5.79
2022-12-27T18:55:27.507Z,5.76
2022-12-27T18:56:37.142Z,5.77
2022-12-27T18:57:41.158Z,5.77
2022-12-27T18:59:30.999Z,5.75
2022-12-27T19:01:00.513Z,5.85
2022-12-27T19:02:41.581Z,5.73
2022-12-27T19:04:41.583Z,5.67
2022-12-27T19:06:21.492Z,5.68
2022-12-27T19:07:26.579Z,5.72
2022-12-27T19:08:53.206Z,5.75
2022-12-27T19:10:02.328Z,5.77